Time;durP1;ratioP1;P1;durP2;ratioP2;P2;SDS_P1;SDS_P2;PMS_P1;PMS_P2;Temp;Humidity;BMP_temperature;BMP_pressure;BME280_temperature;BME280_humidity;BME280_pressure;Samples;Min_cycle;Max_cycle;Signal;HPM_P1;HPM_P2
2021/12/31 00:00:13;;;;;;;297.63;287.37;;;13.80;99.90;;;;;;5001571;28;20455;-84
2021/12/31 00:02:42;;;;;;;288.30;278.07;;;13.80;99.90;;;;;;5002132;28;20808;-84
2021/12/31 00:05:11;;;;;;;252.00;243.03;;;13.90;99.90;;;;;;5002195;28;20462;-84
2021/12/31 00:07:40;;;;;;;234.43;226.93;;;13.90;99.90;;;;;;5000827;28;20477;-85
2021/12/31 00:10:14;;;;;;;238.23;230.60;;;13.90;99.90;;;;;;5001350;28;20807;-84
2021/12/31 00:12:43;;;;;;;165.10;158.83;;;13.90;99.90;;;;;;5000910;28;20485;-84
2021/12/31 00:15:15;;;;;;;151.67;145.67;;;13.90;99.90;;;;;;5000949;28;20455;-83
2021/12/31 00:17:42;;;;;;;138.33;133.23;;;14.00;99.90;;;;;;5000599;28;20496;-84
2021/12/31 00:20:15;;;;;;;148.53;142.97;;;13.90;99.90;;;;;;4999842;28;20882;-84
2021/12/31 00:25:34;;;;;;;110.47;105.83;;;13.90;99.90;;;;;;5000307;28;20526;-85
2021/12/31 00:28:03;;;;;;;114.37;109.67;;;13.90;99.90;;;;;;5000717;28;20565;-84
2021/12/31 00:30:34;;;;;;;105.97;101.87;;;14.00;99.90;;;;;;5001956;28;20454;-84
2021/12/31 00:33:08;;;;;;;124.73;120.03;;;13.90;99.90;;;;;;5000707;28;21041;-84
2021/12/31 00:35:38;;;;;;;127.13;121.83;;;14.00;99.90;;;;;;5001923;28;20454;-84
2021/12/31 00:38:06;;;;;;;116.93;112.30;;;13.90;99.90;;;;;;4998468;28;20469;-85
2021/12/31 00:40:33;;;;;;;90.47;86.53;;;13.90;99.90;;;;;;5001268;28;20458;-84
2021/12/31 00:43:02;;;;;;;97.10;92.90;;;13.90;99.90;;;;;;4999041;28;20477;-83
2021/12/31 00:45:30;;;;;;;90.10;86.40;;;13.90;99.90;;;;;;4999011;28;20478;-84
2021/12/31 00:47:57;;;;;;;73.00;69.90;;;14.00;99.90;;;;;;4999426;28;20539;-84
2021/12/31 00:50:29;;;;;;;76.27;73.03;;;13.90;99.90;;;;;;4998325;28;20458;-84
2021/12/31 00:53:00;;;;;;;64.37;61.47;;;13.90;99.90;;;;;;4998387;28;20470;-84
2021/12/31 00:55:32;;;;;;;65.30;62.23;;;13.90;99.90;;;;;;4998375;28;20493;-84
2021/12/31 00:58:01;;;;;;;57.73;55.03;;;14.00;99.90;;;;;;4998857;28;20484;-84
2021/12/31 01:00:32;;;;;;;49.33;47.13;;;13.90;99.90;;;;;;4998069;28;20509;-83
2021/12/31 01:03:11;;;;;;;40.13;38.10;;;14.00;99.90;;;;;;4997548;28;20454;-84
2021/12/31 01:05:46;;;;;;;37.27;35.37;;;14.00;99.90;;;;;;4998974;28;20457;-84
2021/12/31 01:08:20;;;;;;;34.80;33.00;;;14.10;99.90;;;;;;4997837;28;20473;-85
2021/12/31 01:10:49;;;;;;;39.33;37.33;;;14.10;99.90;;;;;;5002311;28;20461;-85
2021/12/31 01:13:27;;;;;;;38.30;35.93;;;14.00;99.90;;;;;;5002547;28;20478;-85
2021/12/31 01:16:04;;;;;;;27.13;25.43;;;14.00;99.90;;;;;;5002774;28;20454;-84
2021/12/31 01:21:30;;;;;;;36.20;34.10;;;14.00;99.90;;;;;;5002364;28;20441;-84
2021/12/31 01:24:05;;;;;;;30.93;29.10;;;14.00;99.90;;;;;;5002956;28;20493;-83
2021/12/31 01:26:38;;;;;;;24.17;22.50;;;13.90;99.90;;;;;;5002757;28;20457;-83
2021/12/31 01:29:11;;;;;;;21.77;20.23;;;14.00;99.90;;;;;;5002608;28;20485;-84
2021/12/31 01:31:41;;;;;;;16.17;15.07;;;14.00;99.90;;;;;;5000995;28;21001;-83
2021/12/31 01:34:10;;;;;;;18.20;16.90;;;14.10;99.90;;;;;;5001833;28;20457;-84
2021/12/31 01:36:37;;;;;;;20.80;19.60;;;14.10;99.90;;;;;;5001402;28;20458;-84
2021/12/31 01:39:07;;;;;;;21.10;19.50;;;14.10;99.90;;;;;;5000812;28;20524;-84
2021/12/31 01:41:41;;;;;;;14.53;13.63;;;14.10;99.90;;;;;;5000371;28;20454;-84
2021/12/31 01:44:12;;;;;;;15.37;14.20;;;14.10;99.90;;;;;;5000990;28;20455;-84
2021/12/31 01:46:56;;;;;;;16.00;14.90;;;14.10;99.90;;;;;;5001398;28;20455;-84
2021/12/31 01:49:32;;;;;;;18.10;17.00;;;14.00;99.90;;;;;;5000444;28;20482;-84
2021/12/31 01:52:03;;;;;;;14.30;13.07;;;14.00;99.90;;;;;;5000113;28;20474;-84
2021/12/31 01:54:39;;;;;;;19.80;18.53;;;14.10;99.90;;;;;;4999870;28;20486;-84
2021/12/31 01:57:12;;;;;;;19.53;18.23;;;14.10;99.90;;;;;;5000055;28;20840;-84
2021/12/31 01:59:45;;;;;;;20.33;19.00;;;14.00;99.90;;;;;;4998554;28;20533;-84
2021/12/31 02:02:22;;;;;;;16.40;15.33;;;14.00;99.90;;;;;;4999267;28;20529;-83
2021/12/31 02:04:51;;;;;;;20.10;18.53;;;14.10;99.90;;;;;;4999725;28;20458;-84
2021/12/31 02:07:24;;;;;;;19.47;18.13;;;14.10;99.90;;;;;;4998888;28;21072;-85
2021/12/31 02:12:46;;;;;;;10.10;9.20;;;14.10;99.90;;;;;;4999916;28;20489;-82
2021/12/31 02:15:16;;;;;;;11.73;10.03;;;14.10;99.90;;;;;;4999016;28;20477;-84
2021/12/31 02:17:50;;;;;;;7.87;6.80;;;14.20;99.90;;;;;;4999465;28;20570;-86
2021/12/31 02:20:35;;;;;;;7.90;6.70;;;14.20;99.90;;;;;;4997088;28;21010;-84
2021/12/31 02:23:08;;;;;;;6.90;5.90;;;14.10;99.90;;;;;;4998106;28;20466;-84
2021/12/31 02:25:39;;;;;;;8.83;7.67;;;14.20;99.90;;;;;;4998972;28;20470;-85
2021/12/31 02:28:18;;;;;;;10.27;5.50;;;14.20;99.90;;;;;;4998083;28;20470;-83
2021/12/31 02:30:54;;;;;;;8.67;5.60;;;14.20;99.90;;;;;;4997706;28;20570;-84
2021/12/31 02:33:33;;;;;;;5.93;5.33;;;14.30;99.90;;;;;;4997751;28;20493;-85
2021/12/31 02:36:10;;;;;;;7.50;6.40;;;14.20;99.90;;;;;;4997323;28;20530;-84
2021/12/31 02:38:47;;;;;;;6.60;4.97;;;14.20;99.90;;;;;;4997453;28;20479;-84
2021/12/31 02:41:29;;;;;;;7.87;5.30;;;14.30;99.90;;;;;;4997663;28;20457;-84
2021/12/31 02:44:08;;;;;;;6.50;4.83;;;14.20;99.90;;;;;;4998146;28;20461;-85
2021/12/31 02:46:37;;;;;;;9.43;4.97;;;14.20;99.90;;;;;;4996198;28;20462;-85
2021/12/31 02:49:11;;;;;;;10.43;5.00;;;14.20;99.90;;;;;;4996712;28;20458;-86
2021/12/31 02:51:46;;;;;;;7.20;5.80;;;14.30;99.90;;;;;;4997557;28;20470;-84
2021/12/31 02:54:15;;;;;;;10.53;7.50;;;14.20;99.90;;;;;;4998021;28;20489;-84
2021/12/31 02:56:56;;;;;;;13.40;5.27;;;14.20;99.90;;;;;;4997493;28;20561;-84
2021/12/31 03:02:25;;;;;;;6.37;5.20;;;14.20;99.90;;;;;;4939918;27;6203436;-83
2021/12/31 03:05:02;;;;;;;11.40;6.50;;;14.20;99.90;;;;;;5137897;28;20493;-84
2021/12/31 03:07:39;;;;;;;7.97;7.27;;;14.20;99.90;;;;;;5129038;28;20473;-84
2021/12/31 03:10:13;;;;;;;7.63;5.60;;;14.10;99.90;;;;;;5117326;28;20449;-84
2021/12/31 03:13:08;;;;;;;5.67;5.07;;;14.10;99.90;;;;;;5118139;28;20544;-84
2021/12/31 03:16:03;;;;;;;8.50;7.70;;;14.20;99.90;;;;;;5117039;28;20530;-83
2021/12/31 03:18:47;;;;;;;8.07;7.27;;;14.10;99.90;;;;;;5116165;28;20504;-84
2021/12/31 03:21:24;;;;;;;10.20;8.30;;;14.00;99.90;;;;;;5116900;28;20483;-84
2021/12/31 03:24:06;;;;;;;6.70;5.90;;;14.00;99.90;;;;;;5118036;28;20425;-83
2021/12/31 03:26:34;;;;;;;5.80;5.30;;;14.10;99.90;;;;;;5112883;28;20804;-83
2021/12/31 03:29:08;;;;;;;7.00;6.33;;;14.00;99.90;;;;;;5114771;28;20815;-85
2021/12/31 03:31:36;;;;;;;9.20;7.80;;;14.10;99.90;;;;;;5117220;28;20499;-84
2021/12/31 03:34:07;;;;;;;7.47;6.57;;;14.10;99.90;;;;;;5116871;28;20444;-84
2021/12/31 03:36:41;;;;;;;8.33;6.47;;;14.10;99.90;;;;;;5115607;28;20480;-84
2021/12/31 03:39:56;;;;;;;9.00;8.00;;;14.10;99.90;;;;;;5117074;28;20442;-84
2021/12/31 03:42:36;;;;;;;7.43;6.80;;;14.00;99.90;;;;;;5053156;28;20552;-83
2021/12/31 03:45:09;;;;;;;8.03;7.33;;;14.00;99.90;;;;;;5051670;28;20983;-84
2021/12/31 03:47:41;;;;;;;12.33;11.23;;;13.90;99.90;;;;;;5094114;28;20500;-83
2021/12/31 03:50:26;;;;;;;9.80;8.80;;;14.00;99.90;;;;;;5112165;28;20456;-83
2021/12/31 03:52:53;;;;;;;12.53;11.20;;;13.90;99.90;;;;;;5113407;28;20895;-83
2021/12/31 03:55:23;;;;;;;13.80;12.87;;;13.90;99.90;;;;;;5112280;28;20845;-83
2021/12/31 03:58:00;;;;;;;12.50;11.63;;;13.80;99.90;;;;;;5112729;28;20473;-84
2021/12/31 04:00:28;;;;;;;14.80;13.80;;;13.80;99.90;;;;;;5111545;28;20473;-81
2021/12/31 04:03:00;;;;;;;10.50;9.60;;;13.70;99.90;;;;;;5113839;28;20485;-83
2021/12/31 04:05:37;;;;;;;17.47;16.23;;;13.70;99.90;;;;;;5114286;28;20448;-84
2021/12/31 04:08:07;;;;;;;16.30;15.50;;;13.70;99.90;;;;;;5114103;28;20518;-83
2021/12/31 04:10:43;;;;;;;12.50;11.53;;;13.60;99.90;;;;;;5114888;28;20445;-83
2021/12/31 04:13:16;;;;;;;14.00;13.10;;;13.70;99.90;;;;;;5102700;28;20783;-84
2021/12/31 04:16:24;;;;;;;16.80;15.70;;;13.70;99.90;;;;;;5101050;28;20433;-83
2021/12/31 04:18:52;;;;;;;14.23;13.40;;;13.50;99.90;;;;;;5099016;28;20477;-83
2021/12/31 04:21:26;;;;;;;15.63;14.73;;;13.60;99.90;;;;;;5099956;28;20466;-83
2021/12/31 04:24:05;;;;;;;24.70;23.00;;;13.60;99.90;;;;;;5100487;28;20449;-85
2021/12/31 04:26:38;;;;;;;20.30;16.63;;;13.60;99.90;;;;;;5100928;28;20458;-83
2021/12/31 04:29:21;;;;;;;19.87;18.67;;;13.60;99.90;;;;;;5100755;28;20450;-84
2021/12/31 04:32:00;;;;;;;18.73;17.10;;;13.50;99.90;;;;;;5101489;28;20445;-85
2021/12/31 04:34:29;;;;;;;20.93;19.20;;;13.60;99.90;;;;;;5101608;28;20457;-84
2021/12/31 04:37:11;;;;;;;29.33;27.73;;;13.60;99.90;;;;;;5100812;28;20857;-84
2021/12/31 04:39:55;;;;;;;40.67;38.67;;;13.40;99.90;;;;;;5101617;28;20834;-84
2021/12/31 04:42:30;;;;;;;47.90;45.50;;;13.30;99.90;;;;;;5100479;28;20465;-83
2021/12/31 04:44:59;;;;;;;79.73;76.53;;;13.30;99.90;;;;;;5099969;28;20453;-83
2021/12/31 04:47:31;;;;;;;96.07;92.53;;;13.20;99.90;;;;;;5100320;28;20504;-83
2021/12/31 04:50:05;;;;;;;121.37;117.17;;;13.10;99.90;;;;;;5100151;28;20453;-83
2021/12/31 04:52:49;;;;;;;140.83;135.57;;;13.10;99.90;;;;;;5100582;28;20446;-84
2021/12/31 04:55:43;;;;;;;162.70;157.33;;;12.90;99.90;;;;;;5098341;28;20485;-84
2021/12/31 04:58:10;;;;;;;192.93;186.53;;;12.90;99.90;;;;;;5099311;28;20473;-82
2021/12/31 05:00:46;;;;;;;235.57;227.90;;;12.70;99.90;;;;;;5100668;28;20442;-83
2021/12/31 05:03:19;;;;;;;269.40;260.57;;;12.70;99.90;;;;;;5100177;28;20453;-83
2021/12/31 05:05:50;;;;;;;302.73;292.43;;;12.60;99.90;;;;;;5100218;28;20524;-84
2021/12/31 05:08:31;;;;;;;336.43;324.67;;;12.50;99.90;;;;;;5099679;28;20470;-84
2021/12/31 05:11:07;;;;;;;338.87;327.00;;;12.40;99.90;;;;;;5099792;28;20450;-83
2021/12/31 05:13:37;;;;;;;348.33;336.03;;;12.50;99.90;;;;;;5099808;28;20441;-84
2021/12/31 05:16:21;;;;;;;348.50;336.20;;;12.50;99.90;;;;;;5100596;28;20485;-84
2021/12/31 05:18:55;;;;;;;323.77;312.67;;;12.50;99.90;;;;;;5100338;28;20465;-82
2021/12/31 05:21:37;;;;;;;299.60;289.33;;;12.60;99.90;;;;;;5098963;28;20469;-83
2021/12/31 05:24:08;;;;;;;300.07;289.50;;;12.60;99.90;;;;;;5097733;28;20453;-82
2021/12/31 05:26:40;;;;;;;333.40;321.80;;;12.60;99.90;;;;;;5099568;28;20445;-82
2021/12/31 05:29:14;;;;;;;347.23;334.73;;;12.50;99.90;;;;;;5099244;28;20523;-83
2021/12/31 05:31:52;;;;;;;371.10;357.63;;;12.40;99.90;;;;;;5099468;28;20450;-82
2021/12/31 05:34:30;;;;;;;373.23;359.47;;;12.40;99.90;;;;;;5098506;28;20477;-82
2021/12/31 05:37:06;;;;;;;338.63;326.73;;;12.50;99.90;;;;;;5098953;28;20494;-82
2021/12/31 05:39:40;;;;;;;304.53;294.23;;;12.40;99.90;;;;;;5098802;28;20457;-82
2021/12/31 05:42:14;;;;;;;299.43;289.43;;;12.50;99.90;;;;;;5098569;28;20890;-82
2021/12/31 05:44:49;;;;;;;325.50;314.47;;;12.40;99.90;;;;;;5098527;28;20477;-82
2021/12/31 05:47:18;;;;;;;320.43;309.53;;;12.50;99.90;;;;;;5098726;28;20477;-82
2021/12/31 05:49:48;;;;;;;328.90;317.63;;;12.40;99.90;;;;;;5098453;28;20461;-82
2021/12/31 05:52:27;;;;;;;350.13;337.30;;;12.50;99.90;;;;;;5098918;28;20449;-82
2021/12/31 05:54:58;;;;;;;311.67;301.17;;;12.40;99.90;;;;;;5098837;28;20442;-83
2021/12/31 05:57:32;;;;;;;297.37;287.73;;;12.50;99.90;;;;;;5098585;28;21073;-82
2021/12/31 06:00:03;;;;;;;274.50;265.67;;;12.50;99.90;;;;;;5097082;28;20941;-82
2021/12/31 06:02:30;;;;;;;278.00;269.00;;;12.50;99.90;;;;;;5097620;28;20473;-81
2021/12/31 06:05:02;;;;;;;258.20;250.03;;;12.50;99.90;;;;;;5097744;28;20473;-83
2021/12/31 06:07:29;;;;;;;214.67;207.83;;;12.50;99.90;;;;;;5098327;28;20474;-82
2021/12/31 06:10:06;;;;;;;212.10;205.30;;;12.60;99.90;;;;;;5097533;28;20457;-82
2021/12/31 06:12:43;;;;;;;223.53;216.43;;;12.50;99.90;;;;;;5098543;28;20445;-82
2021/12/31 06:15:16;;;;;;;242.30;234.67;;;12.50;99.90;;;;;;5098980;28;20475;-83
2021/12/31 06:17:49;;;;;;;240.80;233.10;;;12.50;99.90;;;;;;5098329;28;20470;-82
2021/12/31 06:20:28;;;;;;;245.93;237.73;;;12.50;99.90;;;;;;5097775;28;20455;-82
2021/12/31 06:23:01;;;;;;;239.00;231.40;;;12.50;99.90;;;;;;5098310;28;20572;-83
2021/12/31 06:25:33;;;;;;;248.93;240.77;;;12.50;99.90;;;;;;5097432;28;20453;-83
2021/12/31 06:28:14;;;;;;;273.63;264.63;;;12.40;99.90;;;;;;5098307;28;20477;-83
2021/12/31 06:30:47;;;;;;;240.13;231.90;;;12.30;99.90;;;;;;5098489;28;20452;-83
2021/12/31 06:33:14;;;;;;;231.40;224.03;;;12.40;99.90;;;;;;5098159;28;20456;-83
2021/12/31 06:35:54;;;;;;;247.70;239.50;;;12.20;99.90;;;;;;5097227;28;20456;-83
2021/12/31 06:38:46;;;;;;;274.40;265.33;;;12.10;99.90;;;;;;5097154;28;20473;-83
2021/12/31 06:41:27;;;;;;;287.07;277.27;;;12.00;99.90;;;;;;5097026;28;20507;-82
2021/12/31 06:43:54;;;;;;;302.93;292.63;;;11.90;99.90;;;;;;5096739;28;20468;-83
2021/12/31 06:47:12;;;;;;;330.37;318.47;;;11.80;99.90;;;;;;5097116;28;20595;-83
2021/12/31 06:49:39;;;;;;;318.00;307.07;;;11.80;99.90;;;;;;5079816;28;20522;-83
2021/12/31 06:52:06;;;;;;;345.23;332.63;;;11.60;99.90;;;;;;5096912;28;20961;-82
2021/12/31 06:54:32;;;;;;;406.00;390.10;;;11.50;99.90;;;;;;5096577;28;20452;-82
2021/12/31 06:57:00;;;;;;;427.87;410.90;;;11.40;99.90;;;;;;5095567;28;20472;-82
2021/12/31 06:59:30;;;;;;;403.80;388.30;;;11.40;99.90;;;;;;5095738;28;20452;-82
2021/12/31 07:02:10;;;;;;;457.43;438.47;;;11.30;99.90;;;;;;5095290;28;20477;-83
2021/12/31 07:05:10;;;;;;;494.00;472.43;;;11.20;99.90;;;;;;5095655;28;20445;-82
2021/12/31 07:08:00;;;;;;;518.73;495.60;;;11.00;99.90;;;;;;5098974;28;20470;-83
2021/12/31 07:10:58;;;;;;;552.83;526.77;;;10.90;99.90;;;;;;5100800;28;20522;-83
2021/12/31 07:14:08;;;;;;;577.43;549.53;;;10.80;99.90;;;;;;5085986;28;20450;-83
2021/12/31 07:16:46;;;;;;;593.40;564.63;;;10.70;99.90;;;;;;5099458;28;20856;-82
2021/12/31 07:19:13;;;;;;;601.23;572.33;;;10.70;99.90;;;;;;5098910;28;20535;-82
2021/12/31 07:21:40;;;;;;;638.57;606.30;;;10.60;99.90;;;;;;5098704;28;20473;-83
2021/12/31 07:24:07;;;;;;;645.37;611.73;;;10.50;99.90;;;;;;5099928;28;20465;-83
2021/12/31 07:26:34;;;;;;;654.93;620.03;;;10.50;99.90;;;;;;5099252;28;20456;-83
2021/12/31 07:29:02;;;;;;;665.83;628.07;;;10.50;99.90;;;;;;5097790;28;20453;-82
2021/12/31 07:31:29;;;;;;;662.07;623.30;;;10.60;99.90;;;;;;5098942;28;20455;-83
2021/12/31 07:33:55;;;;;;;653.33;614.53;;;10.70;99.90;;;;;;5099188;28;20456;-83
2021/12/31 07:36:23;;;;;;;650.23;612.47;;;10.70;99.90;;;;;;5099056;28;20461;-83
2021/12/31 07:38:58;;;;;;;656.80;618.53;;;10.80;99.90;;;;;;5098501;28;20477;-82
2021/12/31 07:41:25;;;;;;;660.70;621.23;;;10.70;99.90;;;;;;5098422;28;20459;-82
2021/12/31 07:43:52;;;;;;;672.97;631.30;;;10.70;99.90;;;;;;5101003;28;20445;-82
2021/12/31 07:46:20;;;;;;;666.57;624.23;;;10.80;99.90;;;;;;5101902;28;20446;-83
2021/12/31 07:48:46;;;;;;;663.80;620.60;;;10.80;99.90;;;;;;5104052;28;20494;-83
2021/12/31 07:51:13;;;;;;;633.87;594.40;;;11.00;99.90;;;;;;5104353;28;20465;-83
2021/12/31 07:53:40;;;;;;;609.17;572.60;;;11.10;99.90;;;;;;5104092;28;20456;-82
2021/12/31 07:56:07;;;;;;;593.10;559.60;;;11.10;99.90;;;;;;5103450;28;20465;-83
2021/12/31 07:58:33;;;;;;;566.93;536.17;;;11.20;99.90;;;;;;5104685;28;20474;-82
2021/12/31 08:01:00;;;;;;;560.87;531.70;;;11.20;99.90;;;;;;5103206;28;20945;-83
2021/12/31 08:03:28;;;;;;;546.57;518.57;;;11.30;99.90;;;;;;5102241;28;20481;-82
2021/12/31 08:06:01;;;;;;;507.37;482.77;;;11.40;99.90;;;;;;5101078;28;20500;-82
2021/12/31 08:08:28;;;;;;;494.27;470.10;;;11.40;99.90;;;;;;5101483;28;20469;-82
2021/12/31 08:10:54;;;;;;;461.00;440.20;;;11.50;99.90;;;;;;5101844;28;20452;-82
2021/12/31 08:13:21;;;;;;;438.40;419.60;;;11.50;99.90;;;;;;5102676;28;20469;-83
2021/12/31 08:15:50;;;;;;;426.20;408.20;;;11.60;99.90;;;;;;5103069;28;20530;-83
2021/12/31 08:18:20;;;;;;;419.40;401.93;;;11.60;99.90;;;;;;5101695;28;20470;-83
2021/12/31 08:20:51;;;;;;;413.37;396.37;;;11.70;99.90;;;;;;5103285;28;20450;-83
2021/12/31 08:23:18;;;;;;;404.07;387.90;;;11.70;99.90;;;;;;5103767;28;20481;-82
2021/12/31 08:25:45;;;;;;;392.97;377.13;;;11.80;99.90;;;;;;5104136;28;20540;-83
2021/12/31 08:28:12;;;;;;;390.37;374.40;;;11.80;99.90;;;;;;5103690;28;20564;-82
2021/12/31 08:30:42;;;;;;;385.10;370.00;;;11.80;99.90;;;;;;5103776;28;20477;-83
2021/12/31 08:33:12;;;;;;;388.83;373.23;;;11.90;99.90;;;;;;5103874;28;20477;-83
2021/12/31 08:35:39;;;;;;;390.30;374.90;;;11.90;99.90;;;;;;5102546;28;20498;-83
2021/12/31 08:38:07;;;;;;;371.20;356.87;;;11.90;99.90;;;;;;5103413;28;20477;-83
2021/12/31 08:40:34;;;;;;;372.80;358.53;;;11.90;99.90;;;;;;5103248;28;20942;-83
2021/12/31 08:43:04;;;;;;;364.57;350.43;;;11.90;99.90;;;;;;5103016;28;20890;-83
2021/12/31 08:45:34;;;;;;;361.37;347.73;;;11.90;99.90;;;;;;5104058;28;20953;-83
2021/12/31 08:48:02;;;;;;;358.97;345.07;;;11.90;99.90;;;;;;5102715;28;20473;-83
2021/12/31 08:50:35;;;;;;;353.53;339.83;;;11.90;99.90;;;;;;5103742;28;20453;-83
2021/12/31 08:53:12;;;;;;;350.43;337.63;;;11.90;99.90;;;;;;5102526;28;20889;-82
2021/12/31 08:55:42;;;;;;;357.43;344.30;;;11.90;99.90;;;;;;5102861;28;20548;-82
2021/12/31 08:58:11;;;;;;;352.30;339.50;;;11.90;99.90;;;;;;5104109;28;20565;-83
2021/12/31 09:00:41;;;;;;;349.70;336.80;;;11.90;99.90;;;;;;5102330;28;20511;-83
2021/12/31 09:03:08;;;;;;;341.23;329.03;;;11.90;99.90;;;;;;5103456;28;21138;-83
2021/12/31 09:05:35;;;;;;;335.97;324.17;;;12.00;99.90;;;;;;5103221;28;20536;-83
2021/12/31 09:08:05;;;;;;;310.60;299.60;;;11.90;99.90;;;;;;5102945;28;20462;-83
2021/12/31 09:10:35;;;;;;;294.10;284.10;;;12.10;99.90;;;;;;5103760;28;20941;-83
2021/12/31 09:13:04;;;;;;;274.63;265.37;;;12.10;99.90;;;;;;5103696;28;20479;-83
2021/12/31 09:15:37;;;;;;;261.20;252.40;;;12.00;99.90;;;;;;5102471;28;20453;-83
2021/12/31 09:18:11;;;;;;;268.90;259.93;;;12.10;99.90;;;;;;5103564;28;20527;-83
2021/12/31 09:20:41;;;;;;;268.70;259.90;;;12.10;99.90;;;;;;5102303;28;20498;-83
2021/12/31 09:23:08;;;;;;;267.13;258.53;;;12.10;99.90;;;;;;5101528;28;20530;-83
2021/12/31 09:25:58;;;;;;;274.67;265.57;;;12.20;99.90;;;;;;5101754;28;20454;-83
2021/12/31 09:28:25;;;;;;;252.27;243.57;;;12.20;99.90;;;;;;5101559;28;20803;-83
2021/12/31 09:30:52;;;;;;;239.40;231.60;;;12.30;99.90;;;;;;5097822;28;20469;-84
2021/12/31 09:33:21;;;;;;;245.73;237.67;;;12.40;99.90;;;;;;5100244;28;20445;-85
2021/12/31 09:35:51;;;;;;;217.37;210.10;;;12.40;99.90;;;;;;5099279;28;20449;-84
2021/12/31 09:38:18;;;;;;;210.17;202.87;;;12.40;99.90;;;;;;5100206;28;20993;-83
2021/12/31 09:40:46;;;;;;;223.63;216.20;;;12.50;99.90;;;;;;5100688;28;20481;-83
2021/12/31 09:43:13;;;;;;;266.10;256.80;;;12.50;99.90;;;;;;5099878;28;20453;-84
2021/12/31 09:45:44;;;;;;;190.97;184.47;;;12.60;99.90;;;;;;5099617;28;20287;-84
2021/12/31 09:48:12;;;;;;;171.43;165.20;;;12.50;99.90;;;;;;5098327;28;20470;-83
2021/12/31 09:50:42;;;;;;;191.23;184.83;;;12.70;99.90;;;;;;5098432;28;20536;-84
2021/12/31 09:53:10;;;;;;;162.43;156.83;;;12.60;99.90;;;;;;5099604;28;20513;-84
2021/12/31 09:55:39;;;;;;;148.30;143.00;;;12.70;99.90;;;;;;5099563;28;20462;-84
2021/12/31 09:58:10;;;;;;;149.90;144.40;;;12.70;99.90;;;;;;5099664;28;20484;-83
2021/12/31 10:00:41;;;;;;;147.47;142.30;;;12.80;99.90;;;;;;5099691;28;20479;-84
2021/12/31 10:03:13;;;;;;;140.63;135.73;;;12.80;99.90;;;;;;5099795;28;20474;-84
2021/12/31 10:05:42;;;;;;;137.37;132.27;;;12.90;99.90;;;;;;5100665;28;20503;-84
2021/12/31 10:08:20;;;;;;;133.20;128.43;;;12.90;99.90;;;;;;5098793;28;20470;-82
2021/12/31 10:11:05;;;;;;;114.13;110.00;;;13.00;99.90;;;;;;5098785;28;20473;-84
2021/12/31 10:13:36;;;;;;;98.90;95.17;;;13.10;99.90;;;;;;5099212;28;20488;-84
2021/12/31 10:16:05;;;;;;;89.87;86.50;;;13.20;99.90;;;;;;5099578;28;20448;-84
2021/12/31 10:18:34;;;;;;;93.17;89.87;;;13.30;99.90;;;;;;5098333;28;20476;-84
2021/12/31 10:21:01;;;;;;;88.30;85.13;;;13.40;99.90;;;;;;5098816;28;20480;-84
2021/12/31 10:23:28;;;;;;;104.13;100.33;;;13.40;99.90;;;;;;5099446;28;20575;-84
2021/12/31 10:26:09;;;;;;;74.10;70.90;;;13.50;99.90;;;;;;5098442;28;20512;-84
2021/12/31 10:28:39;;;;;;;59.13;56.50;;;13.60;99.90;;;;;;5098310;28;20488;-84
2021/12/31 10:31:16;;;;;;;74.43;70.80;;;13.60;99.90;;;;;;5099909;28;20450;-84
2021/12/31 10:34:44;;;;;;;118.80;114.40;;;13.70;99.90;;;;;;5097138;28;20449;-84
2021/12/31 10:44:05;;;;;;;18.97;17.77;;;14.10;99.90;;;;;;5005767;28;20480;-84
2021/12/31 11:14:31;;;;;;;5.30;3.90;;;14.20;99.90;;;;;;4351644;22;20570;-84
2021/12/31 11:21:32;;;;;;;6.27;5.63;;;14.10;99.90;;;;;;4933035;28;20453;-84
2021/12/31 11:51:10;;;;;;;3.60;1.60;;;14.70;99.90;;;;;;5034637;28;20543;-85
2021/12/31 11:54:24;;;;;;;4.03;1.77;;;14.70;99.90;;;;;;5034546;28;20452;-85
2021/12/31 12:38:21;;;;;;;9.30;5.87;;;15.60;95.20;;;;;;4939498;28;20486;-86
2021/12/31 12:44:13;;;;;;;4.83;2.27;;;15.30;96.30;;;;;;4941041;28;20609;-85
2021/12/31 12:47:00;;;;;;;4.40;2.00;;;15.20;95.70;;;;;;5035809;28;20509;-85
2021/12/31 12:49:32;;;;;;;5.50;3.50;;;15.20;96.50;;;;;;5035513;28;20509;-86
2021/12/31 12:52:16;;;;;;;7.60;4.53;;;15.00;96.60;;;;;;5035836;28;20953;-85
2021/12/31 12:54:52;;;;;;;5.80;2.77;;;15.10;96.20;;;;;;5037391;28;20550;-85
2021/12/31 12:57:28;;;;;;;4.30;1.87;;;15.40;95.60;;;;;;5036592;28;20506;-85
2021/12/31 12:59:57;;;;;;;4.20;1.40;;;15.40;95.00;;;;;;5035959;28;20460;-85
2021/12/31 13:02:38;;;;;;;4.50;1.80;;;15.40;94.90;;;;;;5036721;28;20447;-85
2021/12/31 13:05:26;;;;;;;;;;;;;;;;;;;;;
2021/12/31 13:07:56;;;;;;;7.40;2.73;;;15.30;95.50;;;;;;5072220;22;20542;-85
2021/12/31 13:10:30;;;;;;;7.60;2.37;;;15.70;95.10;;;;;;5037105;28;20571;-85
2021/12/31 13:13:00;;;;;;;5.87;2.40;;;15.60;94.80;;;;;;5036763;28;20463;-85
2021/12/31 13:15:34;;;;;;;7.57;2.10;;;15.70;94.60;;;;;;5036068;28;20455;-85
2021/12/31 13:18:10;;;;;;;5.03;1.60;;;15.60;94.90;;;;;;5036598;28;20502;-85
2021/12/31 13:20:38;;;;;;;7.40;2.10;;;15.50;95.30;;;;;;5060749;22;20440;-84
2021/12/31 13:23:06;;;;;;;5.67;2.20;;;15.40;95.20;;;;;;5048758;28;20460;-84
2021/12/31 13:25:44;;;;;;;8.50;2.57;;;15.40;95.90;;;;;;5045987;28;20447;-82
2021/12/31 13:28:16;;;;;;;4.63;1.97;;;15.40;95.80;;;;;;5041479;28;20463;-83
2021/12/31 13:30:58;;;;;;;4.20;1.70;;;15.70;95.10;;;;;;5038387;28;20459;-83
2021/12/31 13:33:29;;;;;;;4.97;1.93;;;16.10;93.50;;;;;;5038619;28;20477;-81
2021/12/31 13:36:22;;;;;;;6.23;2.30;;;16.10;93.50;;;;;;5034984;28;20466;-82
2021/12/31 13:39:06;;;;;;;9.63;1.90;;;15.90;94.10;;;;;;5023024;28;20456;-84
2021/12/31 13:41:36;;;;;;;6.63;2.60;;;15.60;94.20;;;;;;5025896;28;20469;-82
2021/12/31 13:44:06;;;;;;;5.30;2.33;;;15.50;94.90;;;;;;5021648;28;20481;-84
2021/12/31 13:46:36;;;;;;;7.17;2.20;;;15.30;95.60;;;;;;5020250;28;20459;-83
2021/12/31 13:49:08;;;;;;;4.17;1.77;;;15.10;96.30;;;;;;5023716;28;20553;-83
2021/12/31 13:51:36;;;;;;;5.63;2.00;;;15.20;96.50;;;;;;5029333;28;20476;-85
2021/12/31 13:54:04;;;;;;;4.63;2.17;;;15.30;96.50;;;;;;5037610;28;20444;-84
2021/12/31 13:56:36;;;;;;;4.50;1.87;;;15.20;96.60;;;;;;5038092;28;20486;-84
2021/12/31 13:59:23;;;;;;;5.63;2.07;;;15.30;96.50;;;;;;5031050;28;20454;-83
2021/12/31 14:02:11;;;;;;;5.10;2.07;;;15.30;96.50;;;;;;5021563;28;20486;-83
2021/12/31 14:04:59;;;;;;;4.77;1.80;;;15.30;96.80;;;;;;5022214;28;20494;-82
2021/12/31 14:07:33;;;;;;;4.70;2.10;;;15.10;97.10;;;;;;5020558;28;20456;-83
2021/12/31 14:10:01;;;;;;;6.03;2.10;;;15.00;97.80;;;;;;5020938;28;20876;-83
2021/12/31 14:12:28;;;;;;;4.30;2.27;;;14.90;98.10;;;;;;5021167;28;20466;-84
2021/12/31 14:14:55;;;;;;;6.30;2.90;;;14.90;98.60;;;;;;5021895;28;20453;-83
2021/12/31 14:17:24;;;;;;;5.20;2.03;;;14.80;99.00;;;;;;5020761;28;20457;-83
2021/12/31 14:19:50;;;;;;;5.03;2.43;;;14.80;98.50;;;;;;5020626;28;20541;-84
2021/12/31 14:22:17;;;;;;;6.07;2.60;;;14.90;99.70;;;;;;5020204;28;20484;-84
2021/12/31 14:24:44;;;;;;;7.40;3.10;;;14.90;99.10;;;;;;5020425;28;20853;-83
2021/12/31 14:27:10;;;;;;;5.80;2.20;;;14.80;99.20;;;;;;5020290;28;20456;-84
2021/12/31 14:29:37;;;;;;;5.03;2.67;;;14.80;99.60;;;;;;5020900;28;20839;-83
2021/12/31 14:32:05;;;;;;;5.20;2.43;;;14.70;99.60;;;;;;5022324;28;20482;-83
2021/12/31 14:34:34;;;;;;;5.47;3.00;;;14.60;99.50;;;;;;5022082;28;20451;-84
2021/12/31 14:37:04;;;;;;;10.17;3.30;;;14.40;99.90;;;;;;5022048;28;20461;-83
2021/12/31 14:39:34;;;;;;;5.33;2.90;;;14.30;99.90;;;;;;5021456;28;20489;-84
2021/12/31 14:42:01;;;;;;;8.20;3.23;;;14.30;99.90;;;;;;5022006;28;20507;-83
2021/12/31 14:44:29;;;;;;;5.30;3.30;;;14.30;99.90;;;;;;5022208;28;20470;-83
2021/12/31 14:46:56;;;;;;;4.43;3.13;;;14.30;99.90;;;;;;5021544;28;20451;-84
2021/12/31 14:49:24;;;;;;;5.90;3.60;;;14.30;99.90;;;;;;5022149;28;20461;-83
2021/12/31 14:51:53;;;;;;;5.67;3.53;;;14.20;99.90;;;;;;5021290;28;21032;-83
2021/12/31 14:54:20;;;;;;;7.13;3.13;;;14.20;99.90;;;;;;5021510;28;20455;-82
2021/12/31 14:56:47;;;;;;;11.33;4.60;;;14.20;99.90;;;;;;5019476;28;20449;-83
2021/12/31 14:59:15;;;;;;;5.77;4.07;;;14.20;99.90;;;;;;5022010;28;20824;-82